Time;durP1;ratioP1;P1;durP2;ratioP2;P2;SDS_P1;SDS_P2;PMS_P1;PMS_P2;Temp;Humidity;BMP_temperature;BMP_pressure;BME280_temperature;BME280_humidity;BME280_pressure;Samples;Min_cycle;Max_cycle;Signal;HPM_P1;HPM_P2
2022/10/13 00:00:24;;;;;;;0.50;0.50;;;7.60;99.90;;;;;;5100128;28;20285;-84
2022/10/13 00:02:50;;;;;;;0.63;0.63;;;7.50;99.90;;;;;;5096074;28;20174;-84
2022/10/13 00:05:16;;;;;;;0.53;0.53;;;7.40;99.90;;;;;;5094556;28;20228;-83
2022/10/13 00:07:42;;;;;;;0.60;0.60;;;7.40;99.90;;;;;;5106368;28;20269;-82
2022/10/13 00:10:08;;;;;;;0.60;0.60;;;7.40;99.90;;;;;;5105013;28;20255;-82
2022/10/13 00:12:34;;;;;;;0.57;0.57;;;7.40;99.90;;;;;;5098006;28;20181;-82
2022/10/13 00:15:00;;;;;;;0.60;0.60;;;7.50;99.90;;;;;;5098729;28;20710;-83
2022/10/13 00:17:25;;;;;;;0.60;0.60;;;7.30;99.90;;;;;;5099009;28;20224;-84
2022/10/13 00:19:51;;;;;;;0.50;0.50;;;7.30;99.90;;;;;;5109719;28;20221;-83
2022/10/13 00:22:16;;;;;;;0.50;0.50;;;7.30;99.90;;;;;;5118499;28;20235;-86
2022/10/13 00:24:42;;;;;;;0.50;0.50;;;7.30;99.90;;;;;;5100637;28;20214;-82
2022/10/13 00:27:08;;;;;;;0.50;0.50;;;7.20;99.90;;;;;;5098121;28;20173;-84
2022/10/13 00:29:33;;;;;;;0.60;0.60;;;7.20;99.90;;;;;;5098010;28;20843;-82
2022/10/13 00:31:59;;;;;;;0.60;0.60;;;7.20;99.90;;;;;;5097030;28;20198;-85
2022/10/13 00:34:24;;;;;;;0.50;0.50;;;7.10;99.90;;;;;;5097630;28;20206;-86
2022/10/13 00:36:50;;;;;;;0.50;0.50;;;7.70;99.90;;;;;;5098361;28;20174;-83
2022/10/13 00:39:15;;;;;;;0.50;0.50;;;6.90;99.90;;;;;;5098144;28;20739;-79
2022/10/13 00:41:41;;;;;;;0.57;0.57;;;6.90;99.90;;;;;;5108347;28;20254;-81
2022/10/13 00:44:45;;;;;;;0.50;0.50;;;6.90;99.90;;;;;;5104713;28;20189;-82
2022/10/13 00:47:11;;;;;;;0.50;0.50;;;7.00;99.90;;;;;;5097327;28;20173;-83
2022/10/13 00:49:37;;;;;;;0.60;0.60;;;7.10;99.90;;;;;;5096730;28;20201;-82
2022/10/13 00:52:03;;;;;;;0.50;0.50;;;7.30;99.90;;;;;;5096825;28;20174;-81
2022/10/13 00:54:28;;;;;;;0.50;0.50;;;7.40;99.90;;;;;;5100449;28;20185;-81
2022/10/13 00:56:54;;;;;;;0.50;0.50;;;7.50;99.90;;;;;;5114010;28;20178;-82
2022/10/13 00:59:26;;;;;;;0.50;0.50;;;7.60;99.90;;;;;;5115253;28;20209;-79
2022/10/13 01:01:52;;;;;;;0.67;0.67;;;7.80;99.90;;;;;;5114354;28;20196;-79
2022/10/13 01:04:21;;;;;;;0.50;0.50;;;7.90;99.90;;;;;;5114064;28;20177;-79
2022/10/13 01:06:48;;;;;;;0.60;0.60;;;7.90;99.90;;;;;;5123235;28;20177;-83
2022/10/13 01:09:13;;;;;;;0.60;0.60;;;8.00;99.90;;;;;;5124875;28;20199;-84
2022/10/13 01:12:05;;;;;;;0.60;0.60;;;8.20;99.90;;;;;;5103938;28;20197;-85
2022/10/13 01:14:41;;;;;;;0.50;0.50;;;8.50;99.90;;;;;;5121890;28;20173;-82
2022/10/13 01:17:26;;;;;;;0.40;0.40;;;8.80;99.90;;;;;;5120095;28;20253;-82
2022/10/13 01:20:16;;;;;;;0.50;0.50;;;8.80;99.90;;;;;;5118776;28;20227;-82
2022/10/13 01:23:03;;;;;;;0.60;0.60;;;8.40;99.90;;;;;;5119036;28;20192;-82
2022/10/13 01:26:00;;;;;;;0.47;0.47;;;8.30;99.90;;;;;;5098125;28;20596;-83
2022/10/13 01:28:40;;;;;;;0.50;0.50;;;8.10;99.90;;;;;;5108438;28;20645;-83
2022/10/13 01:31:19;;;;;;;0.50;0.50;;;8.20;99.90;;;;;;5117064;28;20545;-84
2022/10/13 01:33:56;;;;;;;0.50;0.50;;;8.30;99.90;;;;;;5117994;28;20546;-82
2022/10/13 01:36:55;;;;;;;0.47;0.47;;;8.30;99.90;;;;;;5117292;28;20181;-81
2022/10/13 01:39:33;;;;;;;0.50;0.50;;;8.40;99.90;;;;;;5114180;28;20227;-86
2022/10/13 01:42:16;;;;;;;0.50;0.50;;;8.60;99.90;;;;;;5096026;28;20746;-84
2022/10/13 01:44:48;;;;;;;0.50;0.50;;;8.70;99.90;;;;;;5109708;28;20642;-81
2022/10/13 01:47:15;;;;;;;0.40;0.40;;;8.80;99.90;;;;;;5117949;28;20252;-82
2022/10/13 01:49:42;;;;;;;0.50;0.50;;;8.90;99.90;;;;;;5117004;28;20468;-81
2022/10/13 01:52:12;;;;;;;0.60;0.60;;;8.90;99.90;;;;;;5117504;28;20177;-82
2022/10/13 01:54:38;;;;;;;0.50;0.50;;;9.00;99.90;;;;;;5116960;27;20197;-83
2022/10/13 01:57:24;;;;;;;0.50;0.50;;;9.00;99.90;;;;;;5116610;28;20541;-82
2022/10/13 01:59:49;;;;;;;0.50;0.50;;;9.10;99.90;;;;;;5095300;28;20665;-85
2022/10/13 02:02:26;;;;;;;0.50;0.50;;;9.00;99.90;;;;;;5105485;28;20165;-83
2022/10/13 02:05:10;;;;;;;0.60;0.60;;;8.90;99.90;;;;;;5116795;28;20173;-82
2022/10/13 02:07:48;;;;;;;0.50;0.50;;;9.00;99.90;;;;;;5116241;28;20248;-81
2022/10/13 02:10:24;;;;;;;0.50;0.50;;;9.00;99.90;;;;;;5115985;28;20295;-82
2022/10/13 02:12:59;;;;;;;0.60;0.60;;;9.20;99.90;;;;;;5116086;28;20176;-81
2022/10/13 02:15:34;;;;;;;0.50;0.50;;;9.20;99.90;;;;;;5113188;28;20180;-82
2022/10/13 02:18:01;;;;;;;0.50;0.50;;;9.30;99.90;;;;;;5096210;28;20166;-81
2022/10/13 02:20:27;;;;;;;0.60;0.60;;;9.40;99.90;;;;;;5095953;28;20221;-83
2022/10/13 02:23:01;;;;;;;0.50;0.50;;;9.40;99.90;;;;;;5096637;28;20174;-83
2022/10/13 02:25:28;;;;;;;0.50;0.50;;;9.50;99.90;;;;;;5096628;28;20193;-89
2022/10/13 02:27:56;;;;;;;0.50;0.50;;;9.60;99.90;;;;;;5097279;28;20174;-82
2022/10/13 02:33:07;;;;;;;0.50;0.50;;;9.70;99.90;;;;;;5080502;22;20234;-82
2022/10/13 02:38:05;;;;;;;0.60;0.60;;;9.80;99.90;;;;;;5121411;22;20393;-81
2022/10/13 02:40:30;;;;;;;0.50;0.50;;;9.60;99.90;;;;;;5124555;28;20802;-84
2022/10/13 02:42:56;;;;;;;0.50;0.50;;;9.50;99.90;;;;;;5118549;28;20177;-81
2022/10/13 02:45:22;;;;;;;0.50;0.50;;;9.50;99.90;;;;;;5100325;28;20169;-81
2022/10/13 02:47:48;;;;;;;0.50;0.50;;;9.40;99.90;;;;;;5100487;28;20219;-81
2022/10/13 02:50:13;;;;;;;0.60;0.60;;;9.50;99.90;;;;;;5106599;28;20298;-82
2022/10/13 02:52:39;;;;;;;0.50;0.50;;;9.60;99.90;;;;;;5100840;28;20181;-81
2022/10/13 02:55:05;;;;;;;0.50;0.50;;;9.60;99.90;;;;;;5095787;28;20185;-81
2022/10/13 02:57:31;;;;;;;0.50;0.50;;;9.70;99.90;;;;;;5094232;28;20288;-81
2022/10/13 02:59:56;;;;;;;0.43;0.43;;;9.80;99.90;;;;;;5104663;28;20218;-83
2022/10/13 03:02:22;;;;;;;0.53;0.53;;;9.80;99.90;;;;;;5101702;28;20277;-83
2022/10/13 03:04:48;;;;;;;0.50;0.50;;;9.80;99.90;;;;;;5094289;28;20178;-82
2022/10/13 03:07:14;;;;;;;0.57;0.57;;;9.80;99.90;;;;;;5096825;28;20178;-82
2022/10/13 03:09:40;;;;;;;0.53;0.53;;;9.90;99.90;;;;;;5116198;28;20264;-81
2022/10/13 03:12:05;;;;;;;0.50;0.50;;;9.80;99.90;;;;;;5106930;28;20203;-83
2022/10/13 03:14:31;;;;;;;0.43;0.43;;;9.80;99.90;;;;;;5095344;28;20189;-85
2022/10/13 03:16:57;;;;;;;0.47;0.47;;;9.80;99.90;;;;;;5111064;28;20181;-80
2022/10/13 03:19:22;;;;;;;0.50;0.50;;;9.90;99.90;;;;;;5103101;28;20208;-83
2022/10/13 03:21:48;;;;;;;0.50;0.50;;;9.90;99.90;;;;;;5115256;28;20189;-84
2022/10/13 03:24:13;;;;;;;0.40;0.40;;;9.90;99.90;;;;;;5114451;28;20181;-82
2022/10/13 03:26:39;;;;;;;0.50;0.50;;;9.90;99.90;;;;;;5115256;28;20169;-81
2022/10/13 03:29:04;;;;;;;0.50;0.50;;;9.90;99.90;;;;;;5115196;28;20218;-84
2022/10/13 03:31:30;;;;;;;0.47;0.47;;;9.90;99.90;;;;;;5115030;28;20184;-82
2022/10/13 03:33:55;;;;;;;0.57;0.57;;;9.90;99.90;;;;;;5105295;28;20536;-83
2022/10/13 03:36:21;;;;;;;0.50;0.50;;;9.90;99.90;;;;;;5077561;28;1042956;-83
2022/10/13 03:38:46;;;;;;;0.50;0.50;;;9.90;99.90;;;;;;5118210;28;20457;-81
2022/10/13 03:41:15;;;;;;;0.50;0.50;;;9.60;99.90;;;;;;5109151;28;20220;-81
2022/10/13 03:43:42;;;;;;;0.40;0.40;;;10.10;99.90;;;;;;5118981;28;20267;-81
2022/10/13 03:46:10;;;;;;;0.60;0.60;;;9.50;99.90;;;;;;5109171;28;20241;-82
2022/10/13 03:48:36;;;;;;;0.60;0.60;;;9.30;99.90;;;;;;5121574;28;20631;-83
2022/10/13 03:51:06;;;;;;;0.53;0.53;;;9.40;99.90;;;;;;5110120;28;20251;-80
2022/10/13 03:53:33;;;;;;;0.60;0.60;;;9.40;99.90;;;;;;5104060;28;20177;-84
2022/10/13 03:55:58;;;;;;;0.50;0.50;;;9.30;99.90;;;;;;5103173;28;20205;-80
2022/10/13 03:58:24;;;;;;;0.60;0.60;;;9.30;99.90;;;;;;5100511;28;20185;-81
2022/10/13 04:00:50;;;;;;;0.50;0.50;;;9.30;99.90;;;;;;5109277;28;20205;-81
2022/10/13 04:03:16;;;;;;;0.50;0.50;;;9.20;99.90;;;;;;5110380;28;20257;-81
2022/10/13 04:05:42;;;;;;;0.43;0.43;;;9.30;99.90;;;;;;5115882;28;20243;-81
2022/10/13 04:08:09;;;;;;;0.50;0.50;;;9.30;99.90;;;;;;5125246;28;20199;-80
2022/10/13 04:10:34;;;;;;;0.60;0.60;;;9.40;99.90;;;;;;5115409;28;20201;-81
2022/10/13 04:13:00;;;;;;;0.50;0.50;;;9.40;99.90;;;;;;5129241;28;20184;-81
2022/10/13 04:15:26;;;;;;;0.57;0.57;;;9.50;99.90;;;;;;5109192;28;20177;-81
2022/10/13 04:17:51;;;;;;;0.60;0.60;;;9.60;99.90;;;;;;5108110;28;20178;-81
2022/10/13 04:20:17;;;;;;;0.50;0.50;;;9.60;99.90;;;;;;5108414;28;20232;-81
2022/10/13 04:22:42;;;;;;;0.50;0.50;;;9.60;99.90;;;;;;5118925;28;20611;-82
2022/10/13 04:25:08;;;;;;;0.53;0.53;;;9.60;99.90;;;;;;5114490;28;20177;-82
2022/10/13 04:27:37;;;;;;;0.60;0.60;;;9.60;99.90;;;;;;5125900;28;20174;-82
2022/10/13 04:30:04;;;;;;;0.60;0.60;;;9.60;99.90;;;;;;5126683;27;20193;-82
2022/10/13 04:32:29;;;;;;;0.50;0.50;;;9.70;99.90;;;;;;5119368;28;20227;-81
2022/10/13 04:34:55;;;;;;;0.50;0.50;;;9.70;99.90;;;;;;5111895;28;20158;-81
2022/10/13 04:37:20;;;;;;;0.60;0.60;;;9.70;99.90;;;;;;5134733;28;20174;-81
2022/10/13 04:39:46;;;;;;;0.60;0.60;;;9.70;99.90;;;;;;5118473;28;20236;-81
2022/10/13 04:42:11;;;;;;;0.50;0.50;;;9.70;99.90;;;;;;5118509;28;20166;-80
2022/10/13 04:44:37;;;;;;;0.50;0.50;;;9.70;99.90;;;;;;5119744;28;20193;-81
2022/10/13 04:47:02;;;;;;;0.50;0.50;;;9.70;99.90;;;;;;5119051;28;20192;-81
2022/10/13 04:49:28;;;;;;;0.60;0.60;;;9.70;99.90;;;;;;5119186;28;20174;-81
2022/10/13 04:51:53;;;;;;;0.50;0.50;;;9.70;99.90;;;;;;5126459;28;20245;-81
2022/10/13 04:54:19;;;;;;;0.60;0.60;;;9.70;99.90;;;;;;5120752;28;20197;-83
2022/10/13 04:56:45;;;;;;;0.50;0.50;;;9.60;99.90;;;;;;5129617;28;20892;-83
2022/10/13 04:59:10;;;;;;;0.50;0.50;;;9.50;99.90;;;;;;5115339;28;20701;-82
2022/10/13 05:01:36;;;;;;;0.40;0.40;;;10.40;99.90;;;;;;5129768;28;20189;-82
2022/10/13 05:04:04;;;;;;;0.50;0.50;;;9.70;99.90;;;;;;5129278;28;20688;-82
2022/10/13 05:06:32;;;;;;;0.50;0.50;;;9.60;99.90;;;;;;5125867;28;20205;-83
2022/10/13 05:08:58;;;;;;;0.60;0.60;;;9.60;99.90;;;;;;5128459;28;20184;-81
2022/10/13 05:11:25;;;;;;;0.50;0.50;;;9.60;99.90;;;;;;5130132;28;20276;-82
2022/10/13 05:13:52;;;;;;;0.50;0.50;;;9.50;99.90;;;;;;5129148;27;20652;-82
2022/10/13 05:16:19;;;;;;;0.60;0.60;;;9.60;99.90;;;;;;5124900;28;20173;-82
2022/10/13 05:18:46;;;;;;;0.70;0.70;;;9.50;99.90;;;;;;5118000;27;20229;-81
2022/10/13 05:21:16;;;;;;;0.53;0.53;;;9.50;99.90;;;;;;5105853;28;20326;-81
2022/10/13 05:23:42;;;;;;;0.67;0.67;;;9.50;99.90;;;;;;5105877;28;20581;-81
2022/10/13 05:26:10;;;;;;;0.50;0.50;;;9.50;99.90;;;;;;5118379;28;20173;-81
2022/10/13 05:28:36;;;;;;;0.50;0.50;;;9.50;99.90;;;;;;5099908;28;20186;-82
2022/10/13 05:31:17;;;;;;;0.50;0.50;;;9.50;99.90;;;;;;5096598;28;20206;-83
2022/10/13 05:33:44;;;;;;;0.50;0.50;;;9.60;99.90;;;;;;5100219;28;20255;-88
2022/10/13 05:36:13;;;;;;;0.70;0.70;;;9.60;99.90;;;;;;5098427;28;20182;-84
2022/10/13 05:38:39;;;;;;;0.60;0.60;;;9.60;99.90;;;;;;5104616;28;20646;-83
2022/10/13 05:41:07;;;;;;;0.50;0.50;;;9.60;99.90;;;;;;5097709;28;20215;-81
2022/10/13 05:43:33;;;;;;;0.60;0.60;;;9.60;99.90;;;;;;5114354;28;20527;-79
2022/10/13 05:45:59;;;;;;;0.60;0.60;;;9.60;99.90;;;;;;5101864;28;20178;-80
2022/10/13 05:48:26;;;;;;;0.60;0.60;;;9.60;99.90;;;;;;5102389;28;20198;-79
2022/10/13 05:50:54;;;;;;;0.60;0.60;;;9.60;99.90;;;;;;5102061;28;20208;-80
2022/10/13 05:53:22;;;;;;;0.63;0.63;;;9.60;99.90;;;;;;5115850;28;20176;-82
2022/10/13 05:55:49;;;;;;;0.50;0.50;;;9.70;99.90;;;;;;5103262;28;20688;-79
2022/10/13 05:58:15;;;;;;;0.40;0.40;;;9.60;99.90;;;;;;5120823;28;20260;-80
2022/10/13 06:00:42;;;;;;;0.70;0.70;;;9.60;99.90;;;;;;5110791;28;20266;-80
2022/10/13 06:03:13;;;;;;;0.50;0.50;;;9.70;99.90;;;;;;5113471;28;20288;-80
2022/10/13 06:05:41;;;;;;;0.60;0.60;;;9.80;99.90;;;;;;5119459;28;20177;-81
2022/10/13 06:08:08;;;;;;;0.60;0.60;;;9.80;99.90;;;;;;5115661;28;20262;-81
2022/10/13 06:10:35;;;;;;;0.50;0.50;;;9.80;99.90;;;;;;5116249;28;20196;-80
2022/10/13 06:13:01;;;;;;;0.50;0.50;;;10.00;99.90;;;;;;5102544;28;20263;-80
2022/10/13 06:15:26;;;;;;;0.50;0.50;;;9.80;99.90;;;;;;5114177;28;20166;-79
2022/10/13 06:17:52;;;;;;;0.50;0.50;;;9.80;99.90;;;;;;5098536;28;20235;-80
2022/10/13 06:20:17;;;;;;;0.50;0.50;;;9.90;99.90;;;;;;5096477;28;20596;-79
2022/10/13 06:22:43;;;;;;;0.50;0.50;;;10.00;99.90;;;;;;5108069;28;20181;-80
2022/10/13 06:25:09;;;;;;;0.40;0.40;;;10.30;99.90;;;;;;5095987;28;20646;-80
2022/10/13 06:27:34;;;;;;;0.60;0.60;;;10.40;99.90;;;;;;5094744;28;20223;-80
2022/10/13 06:30:00;;;;;;;0.60;0.60;;;10.50;99.90;;;;;;5086246;28;20198;-80
2022/10/13 06:32:26;;;;;;;0.40;0.40;;;10.90;99.90;;;;;;5091264;28;20189;-80
2022/10/13 06:34:52;;;;;;;0.40;0.40;;;11.50;99.90;;;;;;5088678;28;20247;-80
2022/10/13 06:37:18;;;;;;;0.50;0.50;;;11.60;99.90;;;;;;5088222;28;20186;-80
2022/10/13 06:39:43;;;;;;;0.40;0.40;;;11.30;99.90;;;;;;5102026;28;20216;-79
2022/10/13 06:42:09;;;;;;;0.40;0.40;;;11.00;99.90;;;;;;5117085;28;20177;-80
2022/10/13 06:44:34;;;;;;;0.40;0.40;;;11.00;99.90;;;;;;5097174;28;20192;-80
2022/10/13 06:47:01;;;;;;;0.40;0.40;;;10.90;99.90;;;;;;5090354;28;20191;-79
2022/10/13 06:49:27;;;;;;;0.50;0.50;;;10.90;99.90;;;;;;5096642;28;20205;-80
2022/10/13 06:51:53;;;;;;;0.40;0.40;;;10.90;99.90;;;;;;5099833;28;20197;-81
2022/10/13 06:54:18;;;;;;;0.40;0.40;;;10.80;99.90;;;;;;5097589;28;20177;-80
2022/10/13 06:56:44;;;;;;;0.50;0.50;;;10.80;99.90;;;;;;5093889;28;20177;-80
2022/10/13 06:59:09;;;;;;;0.40;0.40;;;11.00;99.90;;;;;;5098622;28;20205;-81
2022/10/13 07:01:35;;;;;;;0.57;0.57;;;11.20;99.90;;;;;;5100413;28;20198;-81
2022/10/13 07:04:00;;;;;;;0.60;0.60;;;11.10;99.90;;;;;;5103841;28;20177;-80
2022/10/13 07:06:26;;;;;;;0.47;0.47;;;11.20;99.90;;;;;;5114458;28;20229;-80
2022/10/13 07:08:51;;;;;;;0.50;0.50;;;11.10;99.90;;;;;;5104862;28;20177;-79
2022/10/13 07:11:17;;;;;;;0.40;0.40;;;11.10;99.90;;;;;;5096510;28;20272;-80
2022/10/13 07:13:43;;;;;;;0.50;0.50;;;11.10;99.90;;;;;;5111918;28;20212;-82
2022/10/13 07:16:09;;;;;;;0.53;0.53;;;11.00;99.90;;;;;;5116362;28;20176;-80
2022/10/13 07:18:35;;;;;;;0.50;0.50;;;11.10;99.90;;;;;;5111150;28;20242;-79
2022/10/13 07:21:01;;;;;;;0.40;0.40;;;11.10;99.90;;;;;;5111610;28;20202;-79
2022/10/13 07:23:28;;;;;;;0.40;0.40;;;11.20;99.90;;;;;;5110928;28;20169;-80
2022/10/13 07:25:55;;;;;;;0.40;0.40;;;11.30;99.90;;;;;;5098781;28;20184;-80
2022/10/13 07:28:22;;;;;;;0.47;0.47;;;11.30;99.90;;;;;;5091094;28;20646;-79
2022/10/13 07:30:47;;;;;;;0.50;0.50;;;11.40;99.90;;;;;;5097479;28;20201;-78
2022/10/13 07:33:13;;;;;;;0.50;0.50;;;11.40;99.90;;;;;;5096112;28;20178;-79
2022/10/13 07:35:39;;;;;;;0.50;0.50;;;11.50;99.90;;;;;;5096567;28;20277;-81
2022/10/13 07:38:06;;;;;;;0.50;0.50;;;11.50;99.90;;;;;;5097080;28;20189;-79
2022/10/13 07:40:32;;;;;;;0.60;0.60;;;11.70;99.90;;;;;;5105724;28;20221;-80
2022/10/13 07:42:57;;;;;;;0.50;0.50;;;11.70;99.90;;;;;;5089182;28;20175;-80
2022/10/13 07:45:23;;;;;;;0.40;0.40;;;11.90;99.90;;;;;;5088807;28;20182;-81
2022/10/13 07:47:49;;;;;;;0.40;0.40;;;12.00;99.90;;;;;;5111015;28;20170;-79
2022/10/13 07:50:15;;;;;;;0.40;0.40;;;12.20;99.90;;;;;;5108750;28;20239;-79
2022/10/13 07:52:40;;;;;;;0.40;0.40;;;12.50;99.90;;;;;;5099280;28;20643;-81
2022/10/13 07:55:06;;;;;;;0.50;0.50;;;13.00;99.90;;;;;;5108916;28;20586;-79
2022/10/13 07:57:32;;;;;;;0.50;0.50;;;13.50;99.90;;;;;;5099211;28;20257;-79
2022/10/13 07:59:58;;;;;;;0.40;0.40;;;13.50;99.90;;;;;;5114862;28;20236;-81
2022/10/13 08:02:23;;;;;;;0.40;0.40;;;13.30;99.90;;;;;;5112613;28;20166;-81
2022/10/13 08:04:49;;;;;;;0.37;0.37;;;13.50;99.90;;;;;;5115202;27;20198;-81
2022/10/13 08:07:15;;;;;;;0.40;0.40;;;13.80;91.00;;;;;;5115664;28;20170;-80
2022/10/13 08:09:41;;;;;;;0.40;0.40;;;14.00;41.80;;;;;;5111439;28;20201;-79
2022/10/13 08:12:07;;;;;;;0.30;0.30;;;14.00;34.00;;;;;;5114196;28;20208;-80
2022/10/13 08:14:32;;;;;;;0.40;0.40;;;14.10;59.20;;;;;;5110784;28;20166;-80
2022/10/13 08:16:58;;;;;;;0.40;0.40;;;14.30;35.80;;;;;;5102183;28;20291;-79
2022/10/13 08:19:25;;;;;;;0.50;0.50;;;14.40;15.40;;;;;;5101350;28;20212;-82
2022/10/13 08:21:51;;;;;;;0.40;0.40;;;14.20;1.00;;;;;;5104599;28;20331;-80
2022/10/13 08:24:17;;;;;;;0.30;0.30;;;14.10;1.00;;;;;;5098222;28;20417;-83
2022/10/13 08:26:44;;;;;;;0.40;0.40;;;14.10;19.50;;;;;;5107102;28;20185;-82
2022/10/13 08:29:11;;;;;;;0.30;0.30;;;14.20;30.20;;;;;;5105097;28;20174;-83
2022/10/13 08:31:37;;;;;;;0.40;0.40;;;14.10;1.00;;;;;;5105575;28;20201;-84
2022/10/13 08:34:02;;;;;;;0.40;0.40;;;14.20;1.00;;;;;;5092852;28;20193;-85
2022/10/13 08:36:28;;;;;;;0.37;0.37;;;14.00;42.60;;;;;;5102959;28;20205;-84
2022/10/13 08:38:53;;;;;;;0.40;0.40;;;13.90;90.90;;;;;;5101578;28;20233;-82
2022/10/13 08:41:24;;;;;;;0.40;0.40;;;14.30;42.70;;;;;;5106983;28;20205;-83
2022/10/13 08:44:05;;;;;;;0.40;0.40;;;14.50;1.00;;;;;;5105203;28;20181;-82
2022/10/13 08:46:46;;;;;;;0.40;0.40;;;14.70;1.00;;;;;;5105855;28;20174;-82
2022/10/13 08:49:14;;;;;;;0.30;0.30;;;14.80;1.00;;;;;;5110131;28;20173;-83
2022/10/13 08:51:40;;;;;;;0.40;0.40;;;15.10;1.00;;;;;;5106584;28;20218;-84
2022/10/13 08:54:06;;;;;;;0.40;0.40;;;15.30;1.00;;;;;;5108143;28;20178;-82
2022/10/13 08:56:34;;;;;;;0.30;0.30;;;15.30;1.00;;;;;;5110058;28;20184;-81
2022/10/13 08:59:00;;;;;;;0.40;0.40;;;15.10;1.00;;;;;;5112103;28;20208;-84
2022/10/13 09:01:35;;;;;;;0.40;0.40;;;15.20;1.00;;;;;;5118847;28;20201;-85
2022/10/13 09:04:07;;;;;;;0.40;0.40;;;15.50;1.00;;;;;;5098401;28;20212;-85
2022/10/13 09:06:40;;;;;;;0.30;0.30;;;15.20;1.00;;;;;;5102230;28;20256;-84
2022/10/13 09:09:08;;;;;;;0.30;0.30;;;15.20;1.00;;;;;;5104038;28;20177;-82
2022/10/13 09:11:40;;;;;;;0.40;0.40;;;15.20;1.00;;;;;;5106430;28;20243;-83
2022/10/13 09:14:09;;;;;;;0.50;0.50;;;15.10;1.00;;;;;;5112994;28;20176;-85
2022/10/13 09:16:37;;;;;;;0.30;0.30;;;15.20;1.00;;;;;;5116042;28;20177;-83
2022/10/13 09:19:26;;;;;;;0.30;0.30;;;15.10;1.00;;;;;;5098473;28;20214;-82
2022/10/13 09:22:13;;;;;;;0.37;0.37;;;15.10;1.00;;;;;;5117107;28;20268;-83
2022/10/13 09:24:39;;;;;;;0.40;0.40;;;15.10;1.00;;;;;;5100004;28;20177;-82
2022/10/13 09:27:14;;;;;;;0.40;0.40;;;15.20;1.00;;;;;;5099018;28;20177;-82
2022/10/13 09:29:40;;;;;;;0.40;0.40;;;15.50;1.00;;;;;;5110319;28;20693;-82
2022/10/13 09:32:16;;;;;;;0.40;0.40;;;15.60;1.00;;;;;;5102831;28;20264;-81
2022/10/13 09:34:42;;;;;;;0.43;0.43;;;15.60;1.00;;;;;;5097297;28;20261;-82
2022/10/13 09:37:21;;;;;;;0.40;0.40;;;15.50;1.00;;;;;;5100055;28;20590;-82
2022/10/13 09:40:11;;;;;;;0.40;0.40;;;15.50;1.00;;;;;;5093341;28;20202;-82
2022/10/13 09:42:37;;;;;;;0.40;0.40;;;15.60;1.00;;;;;;5092620;28;20174;-83
2022/10/13 09:45:29;;;;;;;0.30;0.30;;;15.40;1.00;;;;;;5096613;28;20231;-82
2022/10/13 09:48:03;;;;;;;0.50;0.50;;;15.50;1.00;;;;;;5103900;28;20269;-81
2022/10/13 09:50:32;;;;;;;0.43;0.43;;;15.40;1.00;;;;;;5104506;28;20232;-82
2022/10/13 09:53:16;;;;;;;0.40;0.40;;;15.30;1.00;;;;;;5097242;28;20260;-82
2022/10/13 09:55:45;;;;;;;0.50;0.50;;;15.40;1.00;;;;;;5084247;28;20178;-82
2022/10/13 09:58:24;;;;;;;0.40;0.40;;;15.10;1.00;;;;;;5092770;28;20728;-80
2022/10/13 10:00:51;;;;;;;0.40;0.40;;;15.10;1.00;;;;;;5094798;28;20245;-83
2022/10/13 10:03:31;;;;;;;0.30;0.30;;;15.10;1.00;;;;;;5095333;28;20186;-81
2022/10/13 10:06:01;;;;;;;0.53;0.53;;;15.00;1.00;;;;;;5097359;28;20273;-84
2022/10/13 10:08:40;;;;;;;0.30;0.30;;;15.00;1.00;;;;;;5115672;28;20181;-84
2022/10/13 10:11:18;;;;;;;0.43;0.43;;;15.30;1.00;;;;;;5099019;28;20202;-81
2022/10/13 10:13:44;;;;;;;0.40;0.40;;;15.20;1.00;;;;;;5093410;28;20178;-84
2022/10/13 10:16:34;;;;;;;0.40;0.40;;;15.20;1.00;;;;;;5101422;28;20177;-84
2022/10/13 10:19:16;;;;;;;0.30;0.30;;;15.40;1.00;;;;;;5109556;28;20208;-86
2022/10/13 10:21:57;;;;;;;0.30;0.30;;;15.40;1.00;;;;;;5099555;28;20422;-86
2022/10/13 10:24:47;;;;;;;0.43;0.43;;;15.50;1.00;;;;;;5119191;28;20236;-84
2022/10/13 10:27:39;;;;;;;0.47;0.47;;;15.40;1.00;;;;;;5082701;28;20165;-85
2022/10/13 10:30:06;;;;;;;0.50;0.50;;;15.40;1.00;;;;;;5110052;28;20258;-83
2022/10/13 10:33:01;;;;;;;0.40;0.40;;;15.40;1.00;;;;;;5108694;27;20184;-86
2022/10/13 10:35:43;;;;;;;0.40;0.40;;;15.30;1.00;;;;;;5091198;28;20701;-84
2022/10/13 10:38:30;;;;;;;0.40;0.40;;;14.80;1.00;;;;;;5109581;28;20185;-83
2022/10/13 10:41:25;;;;;;;0.50;0.50;;;15.20;1.00;;;;;;5096804;28;20784;-81
2022/10/13 10:43:55;;;;;;;0.40;0.40;;;15.30;1.00;;;;;;5087406;28;20706;-83
2022/10/13 10:46:31;;;;;;;0.40;0.40;;;15.40;1.00;;;;;;5077839;28;20182;-82
2022/10/13 10:49:01;;;;;;;0.47;0.47;;;15.50;1.00;;;;;;5075616;28;20177;-82
2022/10/13 10:51:32;;;;;;;0.43;0.43;;;15.50;1.00;;;;;;5096028;28;20194;-85
2022/10/13 10:54:35;;;;;;;0.40;0.40;;;15.40;1.00;;;;;;5094579;28;20174;-82
2022/10/13 10:57:14;;;;;;;0.40;0.40;;;15.40;1.00;;;;;;5087809;28;20650;-81
2022/10/13 11:00:09;;;;;;;0.50;0.50;;;15.50;1.00;;;;;;5094965;28;20760;-83
2022/10/13 11:03:06;;;;;;;0.40;0.40;;;15.60;1.00;;;;;;5090937;28;20264;-81
2022/10/13 11:05:56;;;;;;;0.50;0.50;;;15.70;1.00;;;;;;5103041;28;20182;-82
2022/10/13 11:08:41;;;;;;;0.40;0.40;;;15.90;1.00;;;;;;5089439;28;20185;-82
2022/10/13 11:11:19;;;;;;;0.40;0.40;;;15.90;1.00;;;;;;5093471;28;20588;-82
2022/10/13 11:14:06;;;;;;;0.50;0.50;;;15.90;1.00;;;;;;5094368;28;20229;-81
2022/10/13 11:16:32;;;;;;;0.50;0.50;;;16.10;1.00;;;;;;5099905;28;20223;-84
2022/10/13 11:19:27;;;;;;;0.40;0.40;;;16.20;99.90;;;;;;5097375;28;20193;-82
2022/10/13 11:22:09;;;;;;;0.40;0.40;;;16.10;99.90;;;;;;5089105;28;20254;-84
2022/10/13 11:24:37;;;;;;;0.50;0.50;;;16.10;1.00;;;;;;5112691;28;20180;-82
2022/10/13 11:27:14;;;;;;;0.40;0.40;;;16.10;99.90;;;;;;5083994;28;20177;-84
2022/10/13 11:29:44;;;;;;;0.50;0.50;;;16.00;1.00;;;;;;5100361;28;20176;-83
2022/10/13 11:32:31;;;;;;;0.40;0.40;;;16.00;99.90;;;;;;5109524;28;20227;-83
2022/10/13 11:35:09;;;;;;;0.40;0.40;;;16.10;99.90;;;;;;5105639;28;20270;-82
2022/10/13 11:38:03;;;;;;;0.57;0.57;;;16.10;1.00;;;;;;5103782;28;20189;-83
2022/10/13 11:40:34;;;;;;;0.40;0.40;;;16.30;1.00;;;;;;5108822;28;20228;-81
2022/10/13 11:43:23;;;;;;;0.40;0.40;;;16.10;99.90;;;;;;5116328;28;20178;-83
2022/10/13 11:46:18;;;;;;;0.50;0.50;;;16.00;1.00;;;;;;5107785;28;20185;-84
2022/10/13 11:49:15;;;;;;;0.40;0.40;;;16.10;1.00;;;;;;5115086;28;20174;-83
2022/10/13 11:52:11;;;;;;;0.40;0.40;;;16.10;1.00;;;;;;5098160;28;20205;-86
2022/10/13 11:55:11;;;;;;;0.47;0.47;;;16.20;1.00;;;;;;5096089;28;20182;-82
2022/10/13 11:57:36;;;;;;;0.40;0.40;;;16.10;1.00;;;;;;5106962;28;20190;-85
2022/10/13 12:00:03;;;;;;;0.40;0.40;;;16.00;1.00;;;;;;5102256;28;20236;-84
2022/10/13 12:02:28;;;;;;;0.40;0.40;;;16.10;1.00;;;;;;5108221;28;20178;-85
2022/10/13 12:05:06;;;;;;;0.40;0.40;;;16.10;1.00;;;;;;5117987;28;20170;-87
2022/10/13 12:07:35;;;;;;;0.40;0.40;;;16.20;1.00;;;;;;5101072;28;20185;-85
2022/10/13 12:10:04;;;;;;;0.40;0.40;;;16.20;1.00;;;;;;5109711;28;20229;-80
2022/10/13 12:12:30;;;;;;;0.50;0.50;;;16.20;1.00;;;;;;5116419;28;20207;-84
2022/10/13 12:14:57;;;;;;;0.40;0.40;;;16.30;1.00;;;;;;5111958;28;20190;-82
2022/10/13 12:17:27;;;;;;;0.40;0.40;;;16.10;1.00;;;;;;5116796;28;20234;-81
2022/10/13 12:20:01;;;;;;;0.50;0.50;;;16.30;1.00;;;;;;5095509;28;20204;-81
2022/10/13 12:22:27;;;;;;;0.50;0.50;;;16.20;1.00;;;;;;5101731;28;20174;-83
2022/10/13 12:25:02;;;;;;;0.50;0.50;;;16.40;1.00;;;;;;5096984;28;20193;-81
2022/10/13 12:27:31;;;;;;;0.40;0.40;;;16.50;1.00;;;;;;5097315;28;20178;-81
2022/10/13 12:29:58;;;;;;;0.50;0.50;;;16.50;99.90;;;;;;5105132;28;20213;-80
2022/10/13 12:32:34;;;;;;;0.30;0.30;;;16.60;1.00;;;;;;5108590;28;20233;-82
2022/10/13 12:35:18;;;;;;;0.40;0.40;;;17.60;1.00;;;;;;5125186;28;20203;-81
2022/10/13 12:37:44;;;;;;;0.40;0.40;;;19.50;1.00;;;;;;5128233;28;20177;-85
2022/10/13 12:40:15;;;;;;;0.50;0.50;;;19.30;1.00;;;;;;5114996;28;20285;-80
2022/10/13 12:42:42;;;;;;;0.33;0.33;;;18.30;1.00;;;;;;5107988;28;20174;-82
2022/10/13 12:45:20;;;;;;;0.30;0.30;;;17.80;1.00;;;;;;5114711;28;20201;-83
2022/10/13 12:47:52;;;;;;;0.40;0.40;;;17.20;39.90;;;;;;5108941;28;20223;-82
2022/10/13 12:50:23;;;;;;;0.40;0.40;;;16.90;1.00;;;;;;5089516;28;20604;-82
2022/10/13 12:52:51;;;;;;;0.50;0.50;;;17.20;99.90;;;;;;5102117;28;20192;-81
2022/10/13 12:55:19;;;;;;;0.40;0.40;;;18.90;1.00;;;;;;5110286;28;20178;-82
2022/10/13 12:57:46;;;;;;;0.30;0.30;;;18.70;1.00;;;;;;5102546;28;20201;-82
2022/10/13 13:00:18;;;;;;;0.30;0.30;;;18.20;99.90;;;;;;5102477;28;20213;-83
2022/10/13 13:03:06;;;;;;;0.40;0.40;;;18.10;99.90;;;;;;5102348;28;20544;-83
2022/10/13 13:05:39;;;;;;;0.33;0.33;;;18.00;99.90;;;;;;5086069;28;20219;-81
2022/10/13 13:08:28;;;;;;;0.40;0.40;;;17.90;82.40;;;;;;5118454;28;20200;-82
2022/10/13 13:11:00;;;;;;;0.40;0.40;;;18.30;1.00;;;;;;5114806;28;20284;-80
2022/10/13 13:13:26;;;;;;;0.40;0.40;;;19.60;99.90;;;;;;5102326;28;20174;-82
2022/10/13 13:15:52;;;;;;;0.30;0.30;;;18.70;99.90;;;;;;5100071;28;20182;-80
2022/10/13 13:18:38;;;;;;;0.30;0.30;;;18.10;1.00;;;;;;5100297;28;20230;-80